createdAt,value
2022-12-16T00:01:26.510Z,81.03
2022-12-16T00:03:56.241Z,104.03
2022-12-16T00:06:26.370Z,68.67
2022-12-16T00:08:53.679Z,64.40
2022-12-16T00:11:21.838Z,78.73
2022-12-16T00:13:49.017Z,87.57
2022-12-16T00:16:18.717Z,102.70
2022-12-16T00:18:47.798Z,96.33
2022-12-16T00:21:15.341Z,101.77
2022-12-16T00:23:42.277Z,128.73
2022-12-16T00:26:10.689Z,101.63
2022-12-16T00:28:39.119Z,109.60
2022-12-16T00:31:06.890Z,92.97
2022-12-16T00:33:34.462Z,110.13
2022-12-16T00:36:01.884Z,107.53
2022-12-16T00:38:28.828Z,79.53
2022-12-16T00:40:56.131Z,129.63
2022-12-16T00:43:23.191Z,109.60
2022-12-16T00:45:50.273Z,103.33
2022-12-16T00:48:19.126Z,103.97
2022-12-16T00:50:55.783Z,94.73
2022-12-16T00:53:24.748Z,85.20
2022-12-16T00:56:01.376Z,106.90
2022-12-16T00:58:28.336Z,120.07
2022-12-16T01:00:55.352Z,115.60
2022-12-16T01:03:22.550Z,84.47
2022-12-16T01:05:49.842Z,124.00
2022-12-16T01:08:17.572Z,86.70
2022-12-16T01:10:55.476Z,61.70
2022-12-16T01:13:24.644Z,60.77
2022-12-16T01:15:52.279Z,98.67
2022-12-16T01:18:19.520Z,90.73
2022-12-16T01:20:46.472Z,84.57
2022-12-16T01:23:13.419Z,43.67
2022-12-16T01:25:40.367Z,79.07
2022-12-16T01:28:07.339Z,47.77
2022-12-16T01:30:35.565Z,55.40
2022-12-16T01:33:02.586Z,56.87
2022-12-16T01:35:54.803Z,50.57
2022-12-16T01:38:16.629Z,65.20
2022-12-16T01:40:43.563Z,66.57
2022-12-16T01:43:22.950Z,68.70
2022-12-16T01:45:50.109Z,87.03
2022-12-16T01:48:53.195Z,80.17
2022-12-16T01:51:47.534Z,55.33
2022-12-16T01:54:26.855Z,44.77
2022-12-16T01:56:58.044Z,45.17
2022-12-16T01:59:28.835Z,31.57
2022-12-16T02:01:57.419Z,34.83
2022-12-16T02:04:24.478Z,37.60
2022-12-16T02:06:59.175Z,38.70
2022-12-16T02:09:26.380Z,28.57
2022-12-16T02:12:22.654Z,36.10
2022-12-16T02:15:02.501Z,30.07
2022-12-16T02:17:42.528Z,30.70
2022-12-16T02:20:44.840Z,37.53
2022-12-16T02:23:43.720Z,43.03
2022-12-16T02:26:57.388Z,37.53
2022-12-16T02:29:43.094Z,29.27
2022-12-16T02:32:43.164Z,40.53
2022-12-16T02:35:20.957Z,57.97
2022-12-16T02:38:02.560Z,66.27
2022-12-16T02:40:43.524Z,43.93
2022-12-16T02:43:27.558Z,83.73
2022-12-16T02:45:54.639Z,59.37
2022-12-16T02:48:22.462Z,73.93
2022-12-16T02:50:52.102Z,62.73
2022-12-16T02:53:20.677Z,45.63
2022-12-16T02:56:15.952Z,63.50
2022-12-16T02:59:16.760Z,60.53
2022-12-16T03:02:16.821Z,57.77
2022-12-16T03:04:49.657Z,52.30
2022-12-16T03:07:19.512Z,63.47
2022-12-16T03:09:47.966Z,58.60
2022-12-16T03:12:18.810Z,80.77
2022-12-16T03:14:51.311Z,61.77
2022-12-16T03:17:20.927Z,50.23
2022-12-16T03:20:01.776Z,46.00
2022-12-16T03:22:34.193Z,78.70
2022-12-16T03:25:01.190Z,55.73
2022-12-16T03:27:58.493Z,104.93
2022-12-16T03:30:40.196Z,54.63
2022-12-16T03:33:27.192Z,59.03
2022-12-16T03:36:08.357Z,53.97
2022-12-16T03:38:37.097Z,53.67
2022-12-16T03:41:05.304Z,89.33
2022-12-16T03:43:32.561Z,74.43
2022-12-16T03:46:04.860Z,93.83
2022-12-16T03:48:33.778Z,48.47
2022-12-16T03:51:01.294Z,66.00
2022-12-16T03:53:28.340Z,99.27
2022-12-16T03:55:55.362Z,63.73
2022-12-16T03:58:22.416Z,60.40
2022-12-16T04:00:49.706Z,69.17
2022-12-16T04:03:16.824Z,96.47
2022-12-16T04:05:45.960Z,88.43
2022-12-16T04:08:13.054Z,109.33
2022-12-16T04:10:58.492Z,92.20
2022-12-16T04:13:43.665Z,77.73
2022-12-16T04:16:34.602Z,95.97
2022-12-16T04:19:21.091Z,86.10
2022-12-16T04:22:06.485Z,104.67
2022-12-16T04:24:34.088Z,112.97
2022-12-16T04:27:19.469Z,105.70
2022-12-16T04:30:04.696Z,42.53
2022-12-16T04:32:52.317Z,42.47
2022-12-16T04:35:37.867Z,43.03
2022-12-16T04:38:23.760Z,38.90
2022-12-16T04:41:09.026Z,47.40
2022-12-16T04:43:54.576Z,39.43
2022-12-16T04:46:40.157Z,40.23
2022-12-16T04:49:26.128Z,39.70
2022-12-16T04:52:11.812Z,56.83
2022-12-16T04:54:59.039Z,49.83
2022-12-16T04:57:44.836Z,79.40
2022-12-16T05:00:31.211Z,60.53
2022-12-16T05:03:17.221Z,108.23
2022-12-16T05:06:02.562Z,102.70
2022-12-16T05:08:47.877Z,70.17
2022-12-16T05:11:33.636Z,49.87
2022-12-16T05:14:18.957Z,97.30
2022-12-16T05:17:04.312Z,64.17
2022-12-16T05:19:49.547Z,68.23
2022-12-16T05:22:35.575Z,88.73
2022-12-16T05:25:20.974Z,85.07
2022-12-16T05:28:13.243Z,88.43
2022-12-16T05:30:58.660Z,67.13
2022-12-16T05:33:44.573Z,54.77
2022-12-16T05:36:29.897Z,52.23
2022-12-16T05:39:15.446Z,46.57
2022-12-16T05:42:00.689Z,50.27
2022-12-16T05:44:46.025Z,44.93
2022-12-16T05:47:32.315Z,42.50
2022-12-16T05:50:17.846Z,43.50
2022-12-16T05:53:14.550Z,39.70
2022-12-16T05:56:01.393Z,42.60
2022-12-16T05:58:47.812Z,39.10
2022-12-16T06:01:33.984Z,56.13
2022-12-16T06:04:19.511Z,54.30
2022-12-16T06:07:05.652Z,43.73
2022-12-16T06:09:56.373Z,43.87
2022-12-16T06:12:42.727Z,54.40
2022-12-16T06:15:29.188Z,41.67
2022-12-16T06:18:14.517Z,60.50
2022-12-16T06:21:00.383Z,50.03
2022-12-16T06:23:45.707Z,46.73
2022-12-16T06:26:31.410Z,55.70
2022-12-16T06:29:17.026Z,49.37
2022-12-16T06:32:02.428Z,69.10
2022-12-16T06:34:47.835Z,53.57
2022-12-16T06:37:33.110Z,63.37
2022-12-16T06:40:18.450Z,56.60
2022-12-16T06:43:03.743Z,55.27
2022-12-16T06:45:49.117Z,63.90
2022-12-16T06:48:34.452Z,68.23
2022-12-16T06:51:19.731Z,56.40
2022-12-16T06:54:05.001Z,60.57
2022-12-16T06:56:50.635Z,64.00
2022-12-16T06:59:35.910Z,41.23
2022-12-16T07:02:21.262Z,47.27
2022-12-16T07:05:06.789Z,43.77
2022-12-16T07:07:52.463Z,43.10
2022-12-16T07:10:37.956Z,44.03
2022-12-16T07:13:23.262Z,41.03
2022-12-16T07:16:08.695Z,40.93
2022-12-16T07:18:53.902Z,42.80
2022-12-16T07:21:39.168Z,41.23
2022-12-16T07:24:25.242Z,48.70
2022-12-16T07:27:10.586Z,40.70
2022-12-16T07:29:55.958Z,42.70
2022-12-16T07:32:41.272Z,45.60
2022-12-16T07:35:26.634Z,42.73
2022-12-16T07:38:11.938Z,47.93
2022-12-16T07:40:57.712Z,36.93
2022-12-16T07:43:43.077Z,43.27
2022-12-16T07:46:28.303Z,39.93
2022-12-16T07:49:13.736Z,57.03
2022-12-16T07:51:59.024Z,44.60
2022-12-16T07:54:44.642Z,46.60
2022-12-16T07:57:29.982Z,42.40
2022-12-16T08:00:15.229Z,36.50
2022-12-16T08:03:00.678Z,37.33
2022-12-16T08:05:45.943Z,44.73
2022-12-16T08:08:31.301Z,45.80
2022-12-16T08:11:16.708Z,40.73
2022-12-16T08:14:01.967Z,43.80
2022-12-16T08:16:50.447Z,41.63
2022-12-16T08:19:36.483Z,51.27
2022-12-16T08:22:22.040Z,42.03
2022-12-16T08:25:07.564Z,26.47
2022-12-16T08:27:52.934Z,47.27
2022-12-16T08:30:38.357Z,26.37
2022-12-16T08:33:43.542Z,29.13
2022-12-16T08:36:29.059Z,40.00
2022-12-16T08:39:14.836Z,43.70
2022-12-16T08:42:00.634Z,44.57
2022-12-16T08:44:46.259Z,44.93
2022-12-16T08:47:31.918Z,44.00
2022-12-16T08:50:17.455Z,66.07
2022-12-16T08:53:14.338Z,46.07
2022-12-16T08:55:59.862Z,75.77
2022-12-16T08:58:45.713Z,45.57
2022-12-16T09:01:31.494Z,60.53
2022-12-16T09:04:16.922Z,59.87
2022-12-16T09:07:02.885Z,94.17
2022-12-16T09:09:48.282Z,70.67
2022-12-16T09:12:33.621Z,41.00
2022-12-16T09:15:18.881Z,69.43
2022-12-16T09:18:04.681Z,80.97
2022-12-16T09:20:50.292Z,74.10
2022-12-16T09:23:35.862Z,42.53
2022-12-16T09:26:21.728Z,41.83
2022-12-16T09:29:07.035Z,42.03
2022-12-16T09:31:52.365Z,56.33
2022-12-16T09:34:37.694Z,54.63
2022-12-16T09:37:22.866Z,53.93
2022-12-16T09:40:08.338Z,43.60
2022-12-16T09:43:06.097Z,31.03
2022-12-16T09:46:19.817Z,23.20
2022-12-16T09:49:36.418Z,36.40
2022-12-16T09:52:24.596Z,27.43
2022-12-16T09:55:10.372Z,27.23
2022-12-16T09:57:56.180Z,26.43
2022-12-16T10:00:45.763Z,31.57
2022-12-16T10:03:41.672Z,31.70
2022-12-16T10:07:04.916Z,29.07
2022-12-16T10:10:36.091Z,37.43
2022-12-16T10:13:47.868Z,41.70
2022-12-16T10:16:56.304Z,43.97
2022-12-16T10:20:05.990Z,42.53
2022-12-16T10:23:48.085Z,41.03
2022-12-16T10:26:49.676Z,46.80
2022-12-16T10:29:39.704Z,40.70
2022-12-16T10:32:50.765Z,35.57
2022-12-16T10:35:51.405Z,30.97
2022-12-16T10:39:09.656Z,29.40
2022-12-16T10:42:02.237Z,33.90
2022-12-16T10:45:02.605Z,35.57
2022-12-16T10:47:48.851Z,31.60
2022-12-16T10:50:34.777Z,42.10
2022-12-16T10:53:33.182Z,43.47
2022-12-16T10:56:52.611Z,44.87
2022-12-16T10:59:38.760Z,49.47
2022-12-16T11:02:39.829Z,37.03
2022-12-16T11:05:53.742Z,42.40
2022-12-16T11:08:53.067Z,38.17
2022-12-16T11:11:47.686Z,44.53
2022-12-16T11:14:37.572Z,38.70
2022-12-16T11:17:45.704Z,42.87
2022-12-16T11:20:43.704Z,234.43
2022-12-16T11:23:40.294Z,98.10
2022-12-16T11:26:37.148Z,166.53
2022-12-16T11:29:32.164Z,84.23
2022-12-16T11:32:20.543Z,79.60
2022-12-16T11:35:13.709Z,93.60
2022-12-16T11:38:00.681Z,76.33
2022-12-16T11:40:47.941Z,94.20
2022-12-16T11:43:43.829Z,217.37
2022-12-16T11:46:35.137Z,171.57
2022-12-16T11:49:25.816Z,163.47
2022-12-16T11:59:44.014Z,81.47
2022-12-16T12:02:56.048Z,117.20
2022-12-16T12:06:40.934Z,135.47
2022-12-16T12:09:30.781Z,93.33
2022-12-16T12:12:50.262Z,120.67
2022-12-16T12:15:50.218Z,73.90
2022-12-16T12:19:04.007Z,93.93
2022-12-16T12:22:55.269Z,111.07
2022-12-16T12:25:51.731Z,83.77
2022-12-16T12:29:14.211Z,112.00
2022-12-16T12:32:44.790Z,101.17
2022-12-16T12:36:09.969Z,92.97
2022-12-16T12:39:17.332Z,85.13
2022-12-16T12:42:14.308Z,79.67
2022-12-16T12:45:17.668Z,138.93
2022-12-16T12:48:19.423Z,102.43
2022-12-16T12:51:40.971Z,158.03
2022-12-16T12:54:45.155Z,169.83
2022-12-16T12:57:34.203Z,194.37
2022-12-16T13:00:36.487Z,349.20
2022-12-16T13:03:36.895Z,311.80
2022-12-16T13:06:23.260Z,93.63
2022-12-16T13:09:08.721Z,94.43
2022-12-16T13:12:18.766Z,86.10
2022-12-16T13:15:11.643Z,89.03
2022-12-16T13:18:22.168Z,84.50
2022-12-16T13:21:16.389Z,87.40
2022-12-16T13:24:04.017Z,106.03
2022-12-16T13:26:52.982Z,76.97
2022-12-16T13:29:47.548Z,315.30
2022-12-16T13:32:42.507Z,83.07
2022-12-16T13:35:27.858Z,176.90
2022-12-16T13:38:24.988Z,98.80
2022-12-16T13:41:15.913Z,98.00
2022-12-16T13:44:11.847Z,132.67
2022-12-16T13:47:09.542Z,121.80
2022-12-16T13:49:54.920Z,130.60
2022-12-16T13:53:11.644Z,159.17
2022-12-16T13:56:15.016Z,171.50
2022-12-16T13:59:09.699Z,183.80
2022-12-16T14:02:16.765Z,135.30
2022-12-16T14:05:06.601Z,149.67
2022-12-16T14:07:56.045Z,109.20
2022-12-16T14:10:46.637Z,97.10
2022-12-16T14:13:44.849Z,114.20
2022-12-16T14:16:55.523Z,148.47
2022-12-16T14:19:53.629Z,97.10
2022-12-16T14:23:32.563Z,122.13
2022-12-16T14:26:19.088Z,88.07
2022-12-16T14:29:08.203Z,125.40
2022-12-16T14:32:22.147Z,103.33
2022-12-16T14:35:20.386Z,115.30
2022-12-16T14:38:06.245Z,216.13
2022-12-16T14:40:52.481Z,292.57
2022-12-16T14:43:44.099Z,141.27
2022-12-16T14:46:50.400Z,107.00
2022-12-16T14:49:50.268Z,118.20
2022-12-16T14:52:46.490Z,94.97
2022-12-16T14:55:46.418Z,142.07
2022-12-16T14:58:36.257Z,130.70
2022-12-16T15:01:34.527Z,301.87
2022-12-16T15:04:24.804Z,116.20
2022-12-16T15:07:13.281Z,143.77
2022-12-16T15:10:07.007Z,150.53
2022-12-16T15:13:02.622Z,152.90
2022-12-16T15:16:04.741Z,121.97
2022-12-16T15:18:59.883Z,115.63
2022-12-16T15:21:45.433Z,123.10
2022-12-16T15:24:37.963Z,127.33
2022-12-16T15:27:42.821Z,266.53
2022-12-16T15:30:50.409Z,217.33
2022-12-16T15:33:38.638Z,292.23
2022-12-16T15:36:33.839Z,168.60
2022-12-16T15:39:19.713Z,265.27
2022-12-16T15:42:06.722Z,174.43
2022-12-16T15:44:52.484Z,229.73
2022-12-16T15:47:53.025Z,123.53
2022-12-16T15:50:43.283Z,140.37
2022-12-16T15:54:05.425Z,201.77
2022-12-16T15:57:03.659Z,159.20
2022-12-16T15:59:56.601Z,123.00
2022-12-16T16:02:48.686Z,131.43
2022-12-16T16:05:41.282Z,203.40
2022-12-16T16:08:29.634Z,184.97
2022-12-16T16:11:16.281Z,149.30
2022-12-16T16:14:07.283Z,124.83
2022-12-16T16:16:56.039Z,135.30
2022-12-16T16:19:45.328Z,156.60
2022-12-16T16:22:34.189Z,126.63
2022-12-16T16:25:19.643Z,115.83
2022-12-16T16:28:05.457Z,154.73
2022-12-16T16:30:51.504Z,88.13
2022-12-16T16:33:37.170Z,110.33
2022-12-16T16:36:32.938Z,98.43
2022-12-16T16:39:18.772Z,108.93
2022-12-16T16:42:04.216Z,146.67
2022-12-16T16:44:50.353Z,165.53
2022-12-16T16:47:36.357Z,103.10
2022-12-16T16:50:22.280Z,107.27
2022-12-16T16:53:07.600Z,113.63
2022-12-16T16:55:52.790Z,89.03
2022-12-16T16:58:52.543Z,116.13
2022-12-16T17:01:38.564Z,237.30
2022-12-16T17:04:24.143Z,138.97
2022-12-16T17:07:09.460Z,76.10
2022-12-16T17:09:54.815Z,104.43
2022-12-16T17:12:48.113Z,152.03
2022-12-16T17:15:43.108Z,146.93
2022-12-16T17:18:29.121Z,170.97
2022-12-16T17:21:14.434Z,137.00
2022-12-16T17:24:00.142Z,188.60
2022-12-16T17:26:46.271Z,144.20
2022-12-16T17:30:00.556Z,212.80
2022-12-16T17:32:46.376Z,212.30
2022-12-16T17:35:31.957Z,160.77
2022-12-16T17:38:17.564Z,301.13
2022-12-16T17:41:09.927Z,225.27
2022-12-16T17:43:55.481Z,270.33
2022-12-16T17:46:44.065Z,157.77
2022-12-16T17:49:29.979Z,112.03
2022-12-16T17:52:15.526Z,83.53
2022-12-16T17:55:01.171Z,116.57
2022-12-16T17:57:46.975Z,136.37
2022-12-16T18:00:33.042Z,84.77
2022-12-16T18:03:18.578Z,123.77
2022-12-16T18:06:04.138Z,106.90
2022-12-16T18:08:51.596Z,83.20
2022-12-16T18:11:38.838Z,140.50
2022-12-16T18:14:24.597Z,120.10
2022-12-16T18:17:09.923Z,109.83
2022-12-16T18:19:55.370Z,93.97
2022-12-16T18:22:40.817Z,126.87
2022-12-16T18:25:26.574Z,121.27
2022-12-16T18:28:11.970Z,144.10
2022-12-16T18:31:04.895Z,170.23
2022-12-16T18:33:50.373Z,164.57
2022-12-16T18:36:36.277Z,245.77
2022-12-16T18:39:23.621Z,155.93
2022-12-16T18:42:08.962Z,167.50
2022-12-16T18:45:00.643Z,128.80
2022-12-16T18:47:46.534Z,221.00
2022-12-16T18:50:45.758Z,93.47
2022-12-16T18:53:31.196Z,209.00
2022-12-16T18:56:26.532Z,108.73
2022-12-16T18:59:12.225Z,132.53
2022-12-16T19:01:58.776Z,90.43
2022-12-16T19:04:44.500Z,112.07
2022-12-16T19:07:33.400Z,100.33
2022-12-16T19:10:19.407Z,72.30
2022-12-16T19:13:05.224Z,141.40
2022-12-16T19:15:51.109Z,135.67
2022-12-16T19:18:36.860Z,170.87
2022-12-16T19:21:22.665Z,145.37
2022-12-16T19:24:08.052Z,133.53
2022-12-16T19:26:56.462Z,113.77
2022-12-16T19:29:43.313Z,181.67
2022-12-16T19:32:28.929Z,156.27
2022-12-16T19:35:14.404Z,241.10
2022-12-16T19:37:59.834Z,104.63
2022-12-16T19:40:45.182Z,143.93
2022-12-16T19:43:30.702Z,191.10
2022-12-16T19:46:16.102Z,198.33
2022-12-16T19:49:01.440Z,179.87
2022-12-16T19:51:47.050Z,231.23
2022-12-16T19:54:32.340Z,279.77
2022-12-16T19:57:17.806Z,101.67
2022-12-16T20:00:03.154Z,142.40
2022-12-16T20:02:57.619Z,149.00
2022-12-16T20:05:43.140Z,108.40
2022-12-16T20:08:28.709Z,126.80
2022-12-16T20:11:13.995Z,158.17
2022-12-16T20:13:59.890Z,150.20
2022-12-16T20:16:45.251Z,133.43
2022-12-16T20:19:30.669Z,294.23
2022-12-16T20:22:16.603Z,284.23
2022-12-16T20:25:01.923Z,155.53
2022-12-16T20:27:47.340Z,215.77
2022-12-16T20:30:32.523Z,215.17
2022-12-16T20:33:17.986Z,215.73
2022-12-16T20:36:23.176Z,262.90
2022-12-16T20:39:08.558Z,172.23
2022-12-16T20:44:59.586Z,96.80
2022-12-16T20:47:44.923Z,144.37
2022-12-16T20:50:30.203Z,150.40
2022-12-16T20:53:15.620Z,105.07
2022-12-16T20:56:00.864Z,136.77
2022-12-16T20:58:46.200Z,136.67
2022-12-16T21:01:31.712Z,127.63
2022-12-16T21:04:17.122Z,157.00
2022-12-16T21:07:02.578Z,151.77
2022-12-16T21:09:47.766Z,118.30
2022-12-16T21:12:33.103Z,162.93
2022-12-16T21:15:18.517Z,144.17
2022-12-16T21:18:03.831Z,103.80
2022-12-16T21:20:49.522Z,79.33
2022-12-16T21:23:34.740Z,71.47
2022-12-16T21:26:20.126Z,88.33
2022-12-16T21:29:05.993Z,68.27
2022-12-16T21:31:51.395Z,83.43
2022-12-16T21:34:38.891Z,79.30
2022-12-16T21:37:24.250Z,129.23
2022-12-16T21:40:09.496Z,154.60
2022-12-16T21:42:56.406Z,109.80
2022-12-16T21:45:41.837Z,115.70
2022-12-16T21:48:30.408Z,112.73
2022-12-16T21:51:26.389Z,103.47
2022-12-16T21:54:11.813Z,141.20
2022-12-16T21:56:57.500Z,121.93
2022-12-16T21:59:42.948Z,147.80
2022-12-16T22:02:32.443Z,125.73
2022-12-16T22:05:17.720Z,151.40
2022-12-16T22:08:03.558Z,111.40
2022-12-16T22:10:48.917Z,153.90
2022-12-16T22:13:47.928Z,172.60
2022-12-16T22:16:33.727Z,144.83
2022-12-16T22:19:19.293Z,163.17
2022-12-16T22:22:06.767Z,134.13
2022-12-16T22:24:52.438Z,169.23
2022-12-16T22:27:39.223Z,174.33
2022-12-16T22:30:26.145Z,263.33
2022-12-16T22:33:11.648Z,294.93
2022-12-16T22:35:56.870Z,182.73
2022-12-16T22:38:42.159Z,91.57
2022-12-16T22:41:27.813Z,375.27
2022-12-16T22:44:13.357Z,289.70
2022-12-16T22:46:58.822Z,240.47
2022-12-16T22:49:44.697Z,217.27
2022-12-16T22:52:30.149Z,239.20
2022-12-16T22:55:15.395Z,184.87
2022-12-16T22:58:00.801Z,166.10
2022-12-16T23:00:46.686Z,148.40
2022-12-16T23:03:36.561Z,157.27
2022-12-16T23:06:33.207Z,153.27
2022-12-16T23:09:18.739Z,237.93
2022-12-16T23:12:04.219Z,164.93
2022-12-16T23:14:50.016Z,165.90
2022-12-16T23:17:38.281Z,174.20
2022-12-16T23:20:24.863Z,199.07
2022-12-16T23:23:17.849Z,167.10
2022-12-16T23:26:20.505Z,194.30
2022-12-16T23:29:12.599Z,191.83
2022-12-16T23:31:57.986Z,145.67
2022-12-16T23:32:30.732Z,138.20
2022-12-16T23:34:45.919Z,188.90
2022-12-16T23:37:33.470Z,167.83
2022-12-16T23:40:18.755Z,107.87
2022-12-16T23:43:06.475Z,170.87
2022-12-16T23:45:51.902Z,154.43
2022-12-16T23:48:37.840Z,79.13
2022-12-16T23:51:23.810Z,81.80
2022-12-16T23:54:09.025Z,128.20
2022-12-16T23:56:56.391Z,124.10
2022-12-16T23:59:41.859Z,113.47
